Time;durP1;ratioP1;P1;durP2;ratioP2;P2;SDS_P1;SDS_P2;PMS_P1;PMS_P2;Temp;Humidity;BMP_temperature;BMP_pressure;BME280_temperature;BME280_humidity;BME280_pressure;Samples;Min_cycle;Max_cycle;Signal;HPM_P1;HPM_P2
2023/05/23 00:00:08;;;;;;;22.50;16.30;;;;;;;-146.25;100.00;52274.94;2095948;28;32215;-70
2023/05/23 00:01:15;;;;;;;19.10;15.88;;;;;;;-146.25;100.00;52291.16;2096543;28;20834;-70
2023/05/23 00:02:17;;;;;;;24.70;17.15;;;;;;;-146.25;100.00;52274.94;2095795;28;32272;-70
2023/05/23 00:03:21;;;;;;;22.00;16.23;;;;;;;-146.25;100.00;52291.16;2096334;28;36522;-71
2023/05/23 00:04:25;;;;;;;22.17;16.60;;;;;;;-146.25;100.00;52272.91;2095987;28;32309;-70
2023/05/23 00:05:28;;;;;;;21.73;15.52;;;;;;;-146.25;100.00;52266.81;2095925;28;36037;-70
2023/05/23 00:06:29;;;;;;;20.95;16.58;;;;;;;-146.25;100.00;52274.94;2096145;28;36744;-70
2023/05/23 00:07:31;;;;;;;20.35;15.82;;;;;;;-146.25;100.00;52262.75;2096589;28;36916;-69
2023/05/23 00:08:33;;;;;;;22.77;16.90;;;;;;;-146.25;100.00;52287.09;2096372;28;29603;-70
2023/05/23 00:09:35;;;;;;;24.40;16.90;;;;;;;-146.25;100.00;52256.69;2096725;28;35593;-70
2023/05/23 00:10:39;;;;;;;22.02;16.42;;;;;;;-146.25;100.00;52264.78;2095692;28;36129;-71
2023/05/23 00:11:44;;;;;;;21.35;16.48;;;;;;;-146.25;100.00;52293.19;2096206;28;34883;-70
2023/05/23 00:12:46;;;;;;;23.00;16.48;;;;;;;-146.25;100.00;52285.06;2096020;28;35544;-70
2023/05/23 00:13:51;;;;;;;19.27;16.20;;;;;;;-146.25;100.00;52264.78;2096487;28;20052;-70
2023/05/23 00:14:53;;;;;;;23.20;17.17;;;;;;;-146.25;100.00;52262.75;2095726;28;37312;-71
2023/05/23 00:15:56;;;;;;;20.88;16.08;;;;;;;-146.25;100.00;52297.22;2096455;28;32127;-70
2023/05/23 00:16:59;;;;;;;23.65;17.13;;;;;;;-146.25;100.00;52256.69;2095612;28;32889;-70
2023/05/23 00:18:00;;;;;;;21.88;17.10;;;;;;;-146.25;100.00;52252.63;2097017;28;20454;-70
2023/05/23 00:19:04;;;;;;;23.15;16.27;;;;;;;-146.25;100.00;52250.59;2095386;28;37574;-70
2023/05/23 00:20:08;;;;;;;21.05;16.88;;;;;;;-146.25;100.00;52266.81;2096475;28;32114;-70
2023/05/23 00:21:12;;;;;;;24.45;17.25;;;;;;;-146.25;100.00;52264.78;2095932;28;33419;-70
2023/05/23 00:22:15;;;;;;;27.67;17.42;;;;;;;-146.25;100.00;52266.81;2096881;28;21172;-70
2023/05/23 00:23:21;;;;;;;20.40;15.82;;;;;;;-146.25;100.00;52248.56;2095722;28;35386;-70
2023/05/23 00:24:23;;;;;;;19.60;15.93;;;;;;;-146.25;100.00;52276.97;2096207;28;36180;-70
2023/05/23 00:25:33;;;;;;;23.00;17.00;;;;;;;-146.25;100.00;52291.16;2096909;28;36368;-70
2023/05/23 00:26:37;;;;;;;22.20;16.17;;;;;;;-146.25;100.00;52242.50;2096401;28;36121;-70
2023/05/23 00:27:39;;;;;;;21.85;16.17;;;;;;;-146.25;100.00;52258.72;2096559;28;20033;-71
2023/05/23 00:28:41;;;;;;;19.92;16.15;;;;;;;-146.25;100.00;52272.91;2087528;28;21764;-70
2023/05/23 00:29:43;;;;;;;20.42;15.63;;;;;;;-146.25;100.00;52260.72;2087538;28;20823;-70
2023/05/23 00:30:44;;;;;;;19.15;14.93;;;;;;;-146.25;100.00;52252.63;2096511;28;27754;-70
2023/05/23 00:31:46;;;;;;;22.92;16.02;;;;;;;-146.25;100.00;52238.44;2087335;28;33474;-70
2023/05/23 00:32:48;;;;;;;20.73;16.13;;;;;;;-146.25;100.00;52262.75;2087745;28;20046;-70
2023/05/23 00:33:50;;;;;;;21.45;16.05;;;;;;;-146.25;100.00;52262.75;2096357;28;27753;-70
2023/05/23 00:34:53;;;;;;;18.20;14.85;;;;;;;-146.25;100.00;52266.81;2096064;28;32862;-70
2023/05/23 00:35:55;;;;;;;23.58;15.57;;;;;;;-146.25;100.00;52268.84;2096116;28;30420;-70
2023/05/23 00:36:57;;;;;;;18.60;14.77;;;;;;;-146.25;100.00;52250.59;2096434;28;23691;-70
2023/05/23 00:38:01;;;;;;;19.60;15.18;;;;;;;-146.25;100.00;52256.69;2096314;28;20037;-69
2023/05/23 00:39:03;;;;;;;18.13;14.00;;;;;;;-146.25;100.00;52228.28;2096372;28;20956;-70
2023/05/23 00:40:07;;;;;;;18.45;14.48;;;;;;;-146.25;100.00;52258.72;2096119;28;30504;-70
2023/05/23 00:41:08;;;;;;;18.15;13.68;;;;;;;-146.25;100.00;52266.81;2096464;28;28880;-70
2023/05/23 00:42:10;;;;;;;16.38;13.18;;;;;;;-146.25;100.00;52258.72;2096274;28;30242;-69
2023/05/23 00:43:12;;;;;;;20.35;14.27;;;;;;;-146.25;100.00;52266.81;2087416;28;21045;-70
2023/05/23 00:44:18;;;;;;;20.27;14.18;;;;;;;-146.25;100.00;52323.59;2079687;28;20919;-70
2023/05/23 00:45:20;;;;;;;17.83;13.80;;;;;;;-146.25;100.00;52287.09;2088282;28;27809;-70
2023/05/23 00:46:22;;;;;;;16.80;13.80;;;;;;;-146.25;100.00;52295.19;2096619;28;20038;-70
2023/05/23 00:47:24;;;;;;;14.52;12.93;;;;;;;-146.25;100.00;52252.63;2087340;28;21147;-70
2023/05/23 00:48:26;;;;;;;19.48;15.18;;;;;;;-146.25;100.00;52254.66;2087454;28;26483;-70
2023/05/23 00:49:29;;;;;;;17.83;14.52;;;;;;;-146.25;100.00;52262.75;2096322;28;20041;-70
2023/05/23 00:50:32;;;;;;;17.02;14.10;;;;;;;-146.25;100.00;52293.19;2095903;28;36767;-70
2023/05/23 00:51:35;;;;;;;19.75;14.70;;;;;;;-146.25;100.00;52244.50;2087221;28;29686;-70
2023/05/23 00:52:38;;;;;;;18.42;14.48;;;;;;;-146.25;100.00;52283.03;2087592;28;20033;-70
2023/05/23 00:53:42;;;;;;;17.48;13.63;;;;;;;-146.25;100.00;52297.22;2087453;28;32561;-70
2023/05/23 00:54:43;;;;;;;16.90;13.48;;;;;;;-146.25;100.00;52258.72;2078630;28;32975;-71
2023/05/23 00:55:48;;;;;;;17.73;13.73;;;;;;;-146.25;100.00;52232.34;2080874;28;20034;-70
2023/05/23 00:56:50;;;;;;;17.80;14.65;;;;;;;-146.25;100.00;52303.31;2087270;28;30395;-70
2023/05/23 00:57:55;;;;;;;16.40;13.52;;;;;;;-146.25;100.00;52266.81;2087265;28;28561;-70
2023/05/23 00:59:01;;;;;;;16.08;13.23;;;;;;;-146.25;100.00;52285.06;2087795;28;20103;-71
2023/05/23 01:00:03;;;;;;;15.10;13.07;;;;;;;-146.25;100.00;52266.81;2088911;28;20919;-70
2023/05/23 01:01:06;;;;;;;13.95;12.02;;;;;;;-146.25;100.00;52246.53;2097722;28;21042;-70
2023/05/23 01:02:09;;;;;;;14.48;12.02;;;;;;;-146.25;100.00;52266.81;2088104;28;30872;-70
2023/05/23 01:03:16;;;;;;;16.83;12.48;;;;;;;-146.25;100.00;52254.66;2080450;28;32929;-70
2023/05/23 01:04:19;;;;;;;15.82;12.55;;;;;;;-146.25;100.00;52240.47;2080986;28;26247;-70
2023/05/23 01:05:21;;;;;;;14.02;11.98;;;;;;;-146.25;100.00;52246.53;2080732;28;28151;-70
2023/05/23 01:06:23;;;;;;;12.90;11.50;;;;;;;-146.25;100.00;52287.09;2088784;28;21173;-70
2023/05/23 01:07:25;;;;;;;14.43;12.57;;;;;;;-146.25;100.00;52262.75;2088707;28;33796;-70
2023/05/23 01:08:28;;;;;;;14.10;12.23;;;;;;;-146.25;100.00;52287.09;2088565;28;26126;-70
2023/05/23 01:09:31;;;;;;;14.07;11.38;;;;;;;-146.25;100.00;52281.00;2098035;28;20889;-70
2023/05/23 01:10:33;;;;;;;13.75;11.10;;;;;;;-146.25;100.00;52276.97;2097705;28;20044;-70
2023/05/23 01:11:49;;;;;;;11.98;10.70;;;;;;;-146.25;100.00;52262.75;2097737;28;25472;-70
2023/05/23 01:13:15;;;;;;;12.73;11.43;;;;;;;-146.25;100.00;52278.97;2087910;28;32839;-70
2023/05/23 01:14:25;;;;;;;13.00;11.18;;;;;;;-146.25;100.00;52311.44;2093036;28;20043;-70
2023/05/23 01:15:43;;;;;;;12.55;11.25;;;;;;;-146.25;100.00;52272.91;2080385;28;20093;-70
2023/05/23 01:16:57;;;;;;;12.27;10.68;;;;;;;-146.25;100.00;52274.94;2085580;28;30623;-70
2023/05/23 01:18:15;;;;;;;12.60;11.18;;;;;;;-146.25;100.00;52278.97;2097355;28;20057;-70
2023/05/23 01:19:45;;;;;;;12.98;11.52;;;;;;;-146.25;100.00;52270.88;2079841;28;26811;-70
2023/05/23 01:20:53;;;;;;;14.32;12.07;;;;;;;-146.25;100.00;52295.19;2081677;28;20056;-70
2023/05/23 01:22:05;;;;;;;16.88;12.80;;;;;;;-146.25;100.00;52270.88;2081216;28;30112;-69
2023/05/23 01:23:40;;;;;;;16.70;12.95;;;;;;;-146.25;100.00;52244.50;2082766;28;20911;-70
2023/05/23 01:25:05;;;;;;;18.15;14.23;;;;;;;-146.25;100.00;52262.75;2086663;28;35919;-70
2023/05/23 01:26:40;;;;;;;19.25;13.98;;;;;;;-146.25;100.00;52264.78;2095513;28;27680;-70
2023/05/23 01:27:54;;;;;;;18.92;14.77;;;;;;;-146.25;100.00;52270.88;2088398;28;27368;-70
2023/05/23 01:29:09;;;;;;;21.38;16.50;;;;;;;-146.25;100.00;52299.25;2084259;28;22481;-70
2023/05/23 01:30:12;;;;;;;24.00;18.17;;;;;;;-146.25;100.00;52236.41;2091676;28;25345;-70
2023/05/23 01:31:18;;;;;;;26.92;19.23;;;;;;;-146.25;100.00;52254.66;2088476;28;29469;-70
2023/05/23 01:32:23;;;;;;;29.88;20.65;;;;;;;-146.25;100.00;52238.44;2073339;28;20399;-70
2023/05/23 01:33:27;;;;;;;28.25;19.25;;;;;;;-146.25;100.00;52287.09;2081623;28;30775;-70
2023/05/23 01:34:30;;;;;;;28.42;20.23;;;;;;;-146.25;100.00;52309.41;2081512;28;20976;-70
2023/05/23 01:35:35;;;;;;;31.10;21.23;;;;;;;-146.25;100.00;52303.31;2081743;28;20038;-70
2023/05/23 01:36:42;;;;;;;30.27;21.42;;;;;;;-146.25;100.00;52305.34;2090111;28;20038;-70
2023/05/23 01:37:45;;;;;;;31.23;22.35;;;;;;;-146.25;100.00;52276.97;2080437;28;20054;-70
2023/05/23 01:38:46;;;;;;;31.13;23.15;;;;;;;-146.25;100.00;52268.84;2081382;28;25169;-70
2023/05/23 01:39:48;;;;;;;35.60;24.55;;;;;;;-146.25;100.00;52262.75;2097275;28;25498;-70
2023/05/23 01:40:52;;;;;;;36.15;24.23;;;;;;;-146.25;100.00;52307.38;2097580;28;29577;-71
2023/05/23 01:41:54;;;;;;;39.72;25.42;;;;;;;-146.25;100.00;52274.94;2088552;28;20932;-70
2023/05/23 01:42:57;;;;;;;41.10;25.90;;;;;;;-146.25;100.00;52313.44;2089399;28;20037;-70
2023/05/23 01:44:02;;;;;;;45.13;27.33;;;;;;;-146.25;100.00;52272.91;2087647;28;34487;-70
2023/05/23 01:45:04;;;;;;;51.72;30.25;;;;;;;-146.25;100.00;52307.38;2072847;28;20042;-70
2023/05/23 01:46:07;;;;;;;50.88;30.17;;;;;;;-146.25;100.00;52230.31;2078977;28;34426;-70
2023/05/23 01:47:09;;;;;;;55.08;30.90;;;;;;;-146.25;100.00;52303.31;2080359;28;25605;-70
2023/05/23 01:48:14;;;;;;;55.03;31.83;;;;;;;-146.25;100.00;52252.63;2088178;28;26557;-70
2023/05/23 01:49:18;;;;;;;54.83;31.02;;;;;;;-146.25;100.00;52295.19;2080689;28;20839;-70
2023/05/23 01:50:24;;;;;;;60.45;33.63;;;;;;;-146.25;100.00;52238.44;2080724;28;32261;-70
2023/05/23 01:51:27;;;;;;;62.92;34.30;;;;;;;-146.25;100.00;52299.25;2088429;28;31822;-70
2023/05/23 01:52:30;;;;;;;60.83;34.80;;;;;;;-146.25;100.00;52254.66;2088290;28;20533;-71
2023/05/23 01:53:34;;;;;;;70.22;35.55;;;;;;;-146.25;100.00;52246.53;2080436;28;20180;-70
2023/05/23 01:54:38;;;;;;;71.68;36.03;;;;;;;-146.25;100.00;52305.34;2080554;28;21015;-70
2023/05/23 01:55:41;;;;;;;73.25;37.08;;;;;;;-146.25;100.00;52254.66;2080897;28;20046;-70
2023/05/23 01:56:43;;;;;;;72.10;36.63;;;;;;;-146.25;100.00;52293.19;2071728;28;20631;-70
2023/05/23 01:57:49;;;;;;;73.40;37.03;;;;;;;-146.25;100.00;52281.00;2080733;28;20046;-70
2023/05/23 01:58:51;;;;;;;66.95;35.47;;;;;;;-146.25;100.00;52319.53;2072805;28;21578;-70
2023/05/23 01:59:55;;;;;;;67.63;34.95;;;;;;;-146.25;100.00;52295.19;2072559;28;20051;-70
2023/05/23 02:00:57;;;;;;;71.82;36.42;;;;;;;-146.25;100.00;52254.66;2085756;28;20162;-70
2023/05/23 02:02:00;;;;;;;70.03;35.60;;;;;;;-146.25;100.00;52268.84;2088192;28;20909;-70
2023/05/23 02:03:01;;;;;;;73.10;36.65;;;;;;;-146.25;100.00;52289.13;2088368;28;20044;-70
2023/05/23 02:04:03;;;;;;;68.88;36.45;;;;;;;-146.25;100.00;52299.25;2097046;28;20088;-70
2023/05/23 02:05:06;;;;;;;74.93;36.97;;;;;;;-146.25;100.00;52331.69;2097152;28;20033;-70
2023/05/23 02:06:07;;;;;;;74.70;36.85;;;;;;;-146.25;100.00;52268.84;2096858;28;20155;-70
2023/05/23 02:07:11;;;;;;;72.97;35.63;;;;;;;-146.25;100.00;52238.44;2096828;28;20095;-68
2023/05/23 02:08:13;;;;;;;71.20;35.33;;;;;;;-146.25;100.00;52264.78;2096985;28;36894;-69
2023/05/23 02:09:15;;;;;;;73.60;35.53;;;;;;;-146.25;100.00;52299.25;2097482;28;20033;-69
2023/05/23 02:10:19;;;;;;;71.78;35.30;;;;;;;-146.25;100.00;52258.72;2096875;28;20041;-70
2023/05/23 02:11:21;;;;;;;67.65;35.67;;;;;;;-146.25;100.00;52260.72;2095794;28;30272;-69
2023/05/23 02:12:26;;;;;;;66.90;35.65;;;;;;;-146.25;100.00;52295.19;2096956;28;20041;-70
2023/05/23 02:13:28;;;;;;;60.92;33.20;;;;;;;-146.25;100.00;52270.88;2096241;28;20044;-69
2023/05/23 02:14:32;;;;;;;67.30;34.58;;;;;;;-146.25;100.00;52289.13;2088756;28;20045;-70
2023/05/23 02:15:34;;;;;;;61.35;34.00;;;;;;;-146.25;100.00;52246.53;2095826;28;27306;-70
2023/05/23 02:16:36;;;;;;;63.10;33.67;;;;;;;-146.25;100.00;52285.06;2096547;28;20152;-70
2023/05/23 02:17:40;;;;;;;62.45;32.72;;;;;;;-146.25;100.00;52274.94;2087321;28;20101;-70
2023/05/23 02:18:44;;;;;;;65.68;34.33;;;;;;;-146.25;100.00;52303.31;2088169;28;28339;-70
2023/05/23 02:19:49;;;;;;;55.75;33.17;;;;;;;-146.25;100.00;52283.03;2096302;28;26698;-70
2023/05/23 02:20:52;;;;;;;57.50;32.83;;;;;;;-146.25;100.00;52289.13;2097964;28;20049;-70
2023/05/23 02:21:53;;;;;;;56.42;31.63;;;;;;;-146.25;100.00;52238.44;2095848;28;30516;-70
2023/05/23 02:22:55;;;;;;;64.35;32.85;;;;;;;-146.25;100.00;52287.09;2096811;28;25159;-70
2023/05/23 02:23:57;;;;;;;54.13;30.73;;;;;;;-146.25;100.00;52272.91;2096938;28;31547;-70
2023/05/23 02:25:01;;;;;;;56.25;29.52;;;;;;;-146.25;100.00;52283.03;2097334;28;25164;-70
2023/05/23 02:26:03;;;;;;;53.80;30.67;;;;;;;-146.25;100.00;52232.34;2096823;28;22910;-70
2023/05/23 02:27:04;;;;;;;58.67;30.55;;;;;;;-146.25;100.00;52256.69;2092922;28;33055;-70
2023/05/23 02:28:06;;;;;;;54.72;30.15;;;;;;;-146.25;100.00;52293.19;2088711;28;20897;-70
2023/05/23 02:29:08;;;;;;;55.15;29.58;;;;;;;-146.25;100.00;52262.75;2096836;28;27519;-70
2023/05/23 02:30:11;;;;;;;54.45;30.60;;;;;;;-146.25;100.00;52287.09;2087964;28;22103;-70
2023/05/23 02:31:12;;;;;;;54.50;30.95;;;;;;;-146.25;100.00;52295.19;2080380;28;20046;-69
2023/05/23 02:32:14;;;;;;;52.20;30.30;;;;;;;-146.25;100.00;52266.81;2087660;28;25003;-70
2023/05/23 02:33:16;;;;;;;52.55;28.52;;;;;;;-146.25;100.00;52248.56;2096953;28;34512;-70
2023/05/23 02:34:18;;;;;;;50.60;28.90;;;;;;;-146.25;100.00;52270.88;2097088;28;21096;-70
2023/05/23 02:35:21;;;;;;;51.70;28.70;;;;;;;-146.25;100.00;52270.88;2088443;28;20987;-70
2023/05/23 02:36:23;;;;;;;50.95;29.08;;;;;;;-146.25;100.00;52287.09;2079799;28;20041;-69
2023/05/23 02:37:25;;;;;;;53.22;29.65;;;;;;;-146.25;100.00;52266.81;2088626;28;20041;-70
2023/05/23 02:38:28;;;;;;;51.05;29.35;;;;;;;-146.25;100.00;52321.56;2088287;28;20045;-70
2023/05/23 02:39:30;;;;;;;42.75;27.35;;;;;;;-146.25;100.00;52264.78;2080715;28;20045;-69
2023/05/23 02:40:32;;;;;;;46.88;27.60;;;;;;;-146.25;100.00;52242.50;2079709;28;20085;-70
2023/05/23 02:41:36;;;;;;;51.15;27.90;;;;;;;-146.25;100.00;52289.13;2088740;28;20083;-70
2023/05/23 02:42:37;;;;;;;51.53;27.33;;;;;;;-146.25;100.00;52272.91;2087842;28;20053;-70
2023/05/23 02:43:40;;;;;;;48.00;26.83;;;;;;;-146.25;100.00;52291.16;2088685;28;20037;-70
2023/05/23 02:44:42;;;;;;;44.20;26.45;;;;;;;-146.25;100.00;52274.94;2087977;28;20784;-70
2023/05/23 02:45:43;;;;;;;42.65;26.67;;;;;;;-146.25;100.00;52303.31;2087731;28;28135;-70
2023/05/23 02:46:46;;;;;;;48.90;26.77;;;;;;;-146.25;100.00;52276.97;2088042;28;20049;-70
2023/05/23 02:47:48;;;;;;;47.17;25.58;;;;;;;-146.25;100.00;52262.75;2079528;28;21428;-70
2023/05/23 02:48:55;;;;;;;44.55;25.85;;;;;;;-146.25;100.00;52311.44;2087896;28;20034;-70
2023/05/23 02:49:57;;;;;;;45.38;27.00;;;;;;;-146.25;100.00;52272.91;2088536;28;20195;-70
2023/05/23 02:51:01;;;;;;;49.97;25.70;;;;;;;-146.25;100.00;52281.00;2079593;28;20037;-69
2023/05/23 02:52:03;;;;;;;37.97;23.40;;;;;;;-146.25;100.00;52291.16;2088432;28;22697;-70
2023/05/23 02:53:05;;;;;;;40.78;24.60;;;;;;;-146.25;100.00;52274.94;2096858;28;20029;-69
2023/05/23 02:54:09;;;;;;;47.90;24.08;;;;;;;-146.25;100.00;52303.31;2079743;28;20654;-69
2023/05/23 02:55:12;;;;;;;41.30;23.38;;;;;;;-146.25;100.00;52303.31;2081089;28;20034;-70
2023/05/23 02:56:21;;;;;;;39.75;23.55;;;;;;;-146.25;100.00;52285.06;2088111;28;20045;-69
2023/05/23 02:57:22;;;;;;;42.88;23.90;;;;;;;-146.25;100.00;52297.22;2079925;28;20093;-70
2023/05/23 02:58:24;;;;;;;42.63;23.65;;;;;;;-146.25;100.00;52254.66;2088190;28;20144;-70
2023/05/23 02:59:28;;;;;;;39.55;22.02;;;;;;;-146.25;100.00;52287.09;2097199;28;20142;-70
2023/05/23 03:00:31;;;;;;;41.53;23.15;;;;;;;-146.25;100.00;52258.72;2088370;28;20080;-70
2023/05/23 03:01:33;;;;;;;43.97;22.63;;;;;;;-146.25;100.00;52276.97;2079896;28;20050;-70
2023/05/23 03:02:38;;;;;;;35.15;21.60;;;;;;;-146.25;100.00;52260.72;2087971;28;20044;-69
2023/05/23 03:03:40;;;;;;;38.30;22.27;;;;;;;-146.25;100.00;52264.78;2080145;28;20127;-69
2023/05/23 03:04:43;;;;;;;38.17;21.30;;;;;;;-146.25;100.00;52270.88;2079964;28;20042;-69
2023/05/23 03:05:45;;;;;;;37.95;22.05;;;;;;;-146.25;100.00;52264.78;2080041;28;21171;-70
2023/05/23 03:06:53;;;;;;;40.03;22.08;;;;;;;-146.25;100.00;52238.44;2088365;28;21320;-71
2023/05/23 03:07:55;;;;;;;37.08;21.25;;;;;;;-146.25;100.00;52270.88;2097293;28;20548;-70
2023/05/23 03:08:57;;;;;;;32.35;20.25;;;;;;;-146.25;100.00;52299.25;2088273;28;20089;-69
2023/05/23 03:10:02;;;;;;;32.85;20.73;;;;;;;-146.25;100.00;52291.16;2079643;28;20046;-70
2023/05/23 03:11:04;;;;;;;32.78;20.92;;;;;;;-146.25;100.00;52254.66;2080024;28;20835;-70
2023/05/23 03:12:06;;;;;;;39.05;21.42;;;;;;;-146.25;100.00;52258.72;2087880;28;30740;-69
2023/05/23 03:13:08;;;;;;;32.40;20.95;;;;;;;-146.25;100.00;52268.84;2096449;28;20903;-69
2023/05/23 03:14:11;;;;;;;31.30;21.77;;;;;;;-146.25;100.00;52281.00;2087888;28;20099;-69
2023/05/23 03:15:13;;;;;;;42.38;22.15;;;;;;;-146.25;100.00;52293.19;2079841;28;20046;-70
2023/05/23 03:16:16;;;;;;;33.58;21.15;;;;;;;-146.25;100.00;52291.16;2088264;28;20048;-69
2023/05/23 03:17:18;;;;;;;37.47;20.58;;;;;;;-146.25;100.00;52274.94;2087684;28;26766;-70
2023/05/23 03:18:22;;;;;;;35.72;21.60;;;;;;;-146.25;100.00;52317.50;2079354;28;33477;-70
2023/05/23 03:19:24;;;;;;;35.33;21.73;;;;;;;-146.25;100.00;52305.34;2088691;28;20103;-69
2023/05/23 03:20:26;;;;;;;41.22;21.77;;;;;;;-146.25;100.00;52293.19;2097058;28;20167;-70
2023/05/23 03:21:28;;;;;;;34.15;20.85;;;;;;;-146.25;100.00;52264.78;2087822;28;20042;-70
2023/05/23 03:22:30;;;;;;;39.35;22.10;;;;;;;-146.25;100.00;52295.19;2087902;28;21002;-70
2023/05/23 03:23:32;;;;;;;35.70;23.05;;;;;;;-146.25;100.00;52295.19;2095156;28;31130;-70
2023/05/23 03:24:34;;;;;;;36.38;21.83;;;;;;;-146.25;100.00;52258.72;2095643;28;24485;-69
2023/05/23 03:25:36;;;;;;;37.53;23.05;;;;;;;-146.25;100.00;52317.50;2096125;28;29285;-69
2023/05/23 03:26:40;;;;;;;37.20;22.33;;;;;;;-146.25;100.00;52299.25;2087740;28;21012;-69
2023/05/23 03:27:42;;;;;;;40.60;23.90;;;;;;;-146.25;100.00;52305.34;2088102;28;20938;-70
2023/05/23 03:28:49;;;;;;;38.15;22.40;;;;;;;-146.25;100.00;52297.22;2087304;28;24015;-70
2023/05/23 03:29:53;;;;;;;38.08;22.60;;;;;;;-146.25;100.00;52252.63;2080885;28;20859;-69
2023/05/23 03:30:54;;;;;;;39.28;22.83;;;;;;;-146.25;100.00;52291.16;2079106;28;28799;-70
2023/05/23 03:31:56;;;;;;;42.63;23.60;;;;;;;-146.25;100.00;52287.09;2088247;28;20931;-69
2023/05/23 03:32:58;;;;;;;40.08;22.42;;;;;;;-146.25;100.00;52293.19;2096423;28;20098;-69
2023/05/23 03:34:00;;;;;;;38.35;22.88;;;;;;;-146.25;100.00;52262.75;2097108;28;20127;-69
2023/05/23 03:35:04;;;;;;;39.10;22.40;;;;;;;-146.25;100.00;52305.34;2096768;28;26707;-70
2023/05/23 03:36:06;;;;;;;40.85;22.35;;;;;;;-146.25;100.00;52283.03;2087630;28;33998;-69
2023/05/23 03:37:08;;;;;;;39.30;22.35;;;;;;;-146.25;100.00;52274.94;2087707;28;20883;-70
2023/05/23 03:38:09;;;;;;;39.83;21.75;;;;;;;-146.25;100.00;52287.09;2087756;28;30628;-69
2023/05/23 03:39:13;;;;;;;40.63;23.33;;;;;;;-146.25;100.00;52270.88;2087914;28;23083;-70
2023/05/23 03:40:15;;;;;;;39.17;23.05;;;;;;;-146.25;100.00;52262.75;2097207;28;21017;-70
2023/05/23 03:41:18;;;;;;;38.95;22.67;;;;;;;-146.25;100.00;52278.97;2087777;28;20153;-70
2023/05/23 03:42:22;;;;;;;37.58;22.88;;;;;;;-146.25;100.00;52262.75;2088408;28;20034;-71
2023/05/23 03:43:24;;;;;;;35.33;22.48;;;;;;;-146.25;100.00;52270.88;2087236;28;20180;-70
2023/05/23 03:44:27;;;;;;;36.80;20.88;;;;;;;-146.25;100.00;52291.16;2079820;28;20144;-70
2023/05/23 03:45:30;;;;;;;37.55;22.42;;;;;;;-146.25;100.00;52264.78;2087818;28;20083;-71
2023/05/23 03:46:32;;;;;;;38.50;22.92;;;;;;;-146.25;100.00;52283.03;2087823;28;21085;-71
2023/05/23 03:47:35;;;;;;;38.92;22.13;;;;;;;-146.25;100.00;52285.06;2087381;28;20056;-70
2023/05/23 03:48:37;;;;;;;37.05;22.20;;;;;;;-146.25;100.00;52246.53;2088073;28;20045;-71
2023/05/23 03:49:41;;;;;;;44.00;23.25;;;;;;;-146.25;100.00;52276.97;2087511;28;20052;-70
2023/05/23 03:50:43;;;;;;;40.47;23.02;;;;;;;-146.25;100.00;52258.72;2079986;28;20038;-70
2023/05/23 03:51:45;;;;;;;32.53;21.08;;;;;;;-146.25;100.00;52268.84;2079684;28;20037;-70
2023/05/23 03:52:50;;;;;;;37.83;21.77;;;;;;;-146.25;100.00;52272.91;2087677;28;20109;-70
2023/05/23 03:53:51;;;;;;;41.50;22.75;;;;;;;-146.25;100.00;52264.78;2087667;28;22963;-70
2023/05/23 03:54:55;;;;;;;37.05;21.50;;;;;;;-146.25;100.00;52301.28;2096307;28;20176;-71
2023/05/23 03:55:58;;;;;;;35.13;22.08;;;;;;;-146.25;100.00;52268.84;2087951;28;20057;-71
2023/05/23 03:57:03;;;;;;;34.13;21.40;;;;;;;-146.25;100.00;52268.84;2079948;28;20101;-71
2023/05/23 03:58:05;;;;;;;34.70;22.20;;;;;;;-146.25;100.00;52276.97;2079708;28;20050;-70
2023/05/23 03:59:09;;;;;;;33.72;20.73;;;;;;;-146.25;100.00;52266.81;2088000;28;20053;-71
2023/05/23 04:00:11;;;;;;;33.90;20.80;;;;;;;-146.25;100.00;52246.53;2087759;28;20131;-71
2023/05/23 04:01:19;;;;;;;38.83;20.30;;;;;;;-146.25;100.00;52305.34;2088188;28;20127;-71
2023/05/23 04:02:23;;;;;;;32.28;19.98;;;;;;;-146.25;100.00;52268.84;2096684;28;20171;-71
2023/05/23 04:03:26;;;;;;;36.83;21.95;;;;;;;-146.25;100.00;52287.09;2087640;28;20045;-71
2023/05/23 04:04:28;;;;;;;31.63;20.25;;;;;;;-146.25;100.00;52315.47;2079563;28;20088;-71
2023/05/23 04:05:30;;;;;;;35.03;20.67;;;;;;;-146.25;100.00;52244.50;2079660;28;20114;-71
2023/05/23 04:06:35;;;;;;;37.10;21.05;;;;;;;-146.25;100.00;52327.66;2079993;28;20608;-71
2023/05/23 04:07:39;;;;;;;35.60;20.40;;;;;;;-146.25;100.00;52244.50;2075143;28;20204;-71
2023/05/23 04:08:42;;;;;;;37.47;21.65;;;;;;;-146.25;100.00;52313.44;2079385;28;20042;-71
2023/05/23 04:09:44;;;;;;;33.47;20.98;;;;;;;-146.25;100.00;52291.16;2087048;28;20045;-71
2023/05/23 04:10:47;;;;;;;33.95;20.08;;;;;;;-146.25;100.00;52266.81;2087526;28;20046;-71
2023/05/23 04:11:50;;;;;;;40.17;21.10;;;;;;;-146.25;100.00;52272.91;2087278;28;20815;-71
2023/05/23 04:12:53;;;;;;;37.03;20.35;;;;;;;-146.25;100.00;52276.97;2087652;28;20053;-71
2023/05/23 04:13:57;;;;;;;36.70;20.65;;;;;;;-146.25;100.00;52258.72;2079350;28;20046;-71
2023/05/23 04:14:58;;;;;;;37.20;19.77;;;;;;;-146.25;100.00;52295.19;2087348;28;21651;-71
2023/05/23 04:16:04;;;;;;;33.22;19.77;;;;;;;-146.25;100.00;52281.00;2087643;28;20143;-71
2023/05/23 04:17:10;;;;;;;36.75;18.95;;;;;;;-146.25;100.00;52270.88;2080165;28;20053;-71
2023/05/23 04:18:13;;;;;;;28.92;17.70;;;;;;;-146.25;100.00;52307.38;2079913;28;20045;-70
2023/05/23 04:19:16;;;;;;;29.77;17.70;;;;;;;-146.25;100.00;52272.91;2088383;28;20917;-71
2023/05/23 04:20:18;;;;;;;28.73;17.67;;;;;;;-146.25;100.00;52270.88;2095553;28;20119;-70
2023/05/23 04:21:22;;;;;;;31.25;17.27;;;;;;;-146.25;100.00;52303.31;2087911;28;20108;-71
2023/05/23 04:22:35;;;;;;;26.23;15.90;;;;;;;-146.25;100.00;52285.06;2087015;28;20186;-71
2023/05/23 04:23:38;;;;;;;33.85;17.30;;;;;;;-146.25;100.00;52250.59;2079634;28;20176;-71
2023/05/23 04:24:40;;;;;;;28.40;16.17;;;;;;;-146.25;100.00;52285.06;2079486;28;20030;-71
2023/05/23 04:25:43;;;;;;;25.48;15.43;;;;;;;-146.25;100.00;52264.78;2079561;28;20046;-71
2023/05/23 04:26:55;;;;;;;24.52;16.35;;;;;;;-146.25;100.00;52319.53;2088543;28;20045;-71
2023/05/23 04:28:00;;;;;;;29.67;17.10;;;;;;;-146.25;100.00;52260.72;2087764;28;20050;-71
2023/05/23 04:29:04;;;;;;;27.45;15.70;;;;;;;-146.25;100.00;52266.81;2087696;28;20902;-71
2023/05/23 04:30:10;;;;;;;29.55;15.18;;;;;;;-146.25;100.00;52287.09;2096178;28;20049;-71
2023/05/23 04:31:14;;;;;;;23.15;12.63;;;;;;;-146.25;100.00;52256.69;2079273;28;20169;-71
2023/05/23 04:32:18;;;;;;;22.27;14.70;;;;;;;-146.25;100.00;52283.03;2080504;28;20086;-71
2023/05/23 04:33:20;;;;;;;23.92;13.70;;;;;;;-146.25;100.00;52242.50;2086989;28;20068;-71
2023/05/23 04:34:22;;;;;;;17.42;10.90;;;;;;;-146.25;100.00;52299.25;2087970;28;20038;-72
2023/05/23 04:35:25;;;;;;;18.17;12.38;;;;;;;-146.25;100.00;52283.03;2088570;28;20096;-71
2023/05/23 04:36:27;;;;;;;18.23;12.65;;;;;;;-146.25;100.00;52311.44;2089267;28;24187;-71
2023/05/23 04:37:32;;;;;;;22.95;12.07;;;;;;;-146.25;100.00;52311.44;2097741;28;20037;-71
2023/05/23 04:38:37;;;;;;;16.15;10.90;;;;;;;-146.25;100.00;52264.78;2097031;28;20940;-71
2023/05/23 04:39:38;;;;;;;18.10;11.25;;;;;;;-146.25;100.00;52333.72;2097033;28;25918;-71
2023/05/23 04:41:12;;;;;;;14.68;11.10;;;;;;;-146.25;100.00;52266.81;2073444;28;20902;-71
2023/05/23 04:42:34;;;;;;;17.88;11.10;;;;;;;-146.25;100.00;52258.72;2088149;28;20077;-71
2023/05/23 04:43:45;;;;;;;17.50;11.15;;;;;;;-146.25;100.00;52248.56;2086241;28;20176;-71
2023/05/23 04:44:56;;;;;;;13.43;10.70;;;;;;;-146.25;100.00;52311.44;2081670;28;20034;-71